»·PEaware :: SWA1818 KBUR-KLAS

SWA1818 :: KBUR-KLAS

FLIGHT INFORMATION

Flight Status: Arrived
Operator:
Southwest Airlines
More flights by this operator :: More flights under this callsign
Pilot: Drew L. (13237)
Aircraft: BOEING 737-800
(B738)
More flights by this aircraft type
Origin: KBUR Bob Hope-Burbank
United States
Destination: KLAS McCarran Intl
United States
More flights between these airports :: More routes between these airports
Route: +MISEN KEPEC6
File this flight plan on PilotEdge
Remarks: PBN / A1B1C1D1S1S2 DOF / 180416 REG / N806SB OPR / SWA PER / C RMK / TCAS SIMBRIEF
Altitude:
(Current/Filed)
25,000ft
Speed:
(Current/Filed)
451kts
Departed: 15-Apr-18 09:19 PM
Arrived: 15-Apr-18 10:05 PM
Distance/Time
Traveled:
194nm/0:46
Distance/Time
To Go:
Arrived

Flight Plot

Page will automatically refresh every two minutes.

Flight plan parsing failed; only flown route is shown


Map Options




Map Legend


Flown Route
Filed Route
Departure Airport
Arrival Airport
Navaid (VOR, NDB)
Fix

Horizontal Profiles

Position Reports

Time Latitude Longitude Heading Altitude Ground
Speed
15-Apr-18 20:57 34.196816 -118.350174 179 784ft 0kts
15-Apr-18 20:58 34.196816 -118.350174 179 784ft 0kts
15-Apr-18 20:59 34.196816 -118.350174 179 784ft 0kts
15-Apr-18 21:00 34.196816 -118.350174 179 784ft 0kts
15-Apr-18 21:01 34.196816 -118.350174 179 784ft 0kts
15-Apr-18 21:02 34.196816 -118.350174 179 784ft 0kts
15-Apr-18 21:03 34.196816 -118.350174 179 784ft 0kts
15-Apr-18 21:04 34.196816 -118.350174 179 784ft 0kts
15-Apr-18 21:05 34.196816 -118.350174 179 784ft 0kts
15-Apr-18 21:06 34.196816 -118.350174 179 784ft 0kts
15-Apr-18 21:07 34.196817 -118.350174 179 784ft 0kts
15-Apr-18 21:08 34.196977 -118.350139 210 784ft 2kts
15-Apr-18 21:09 34.197154 -118.349714 271 784ft 0kts
15-Apr-18 21:10 34.197154 -118.349714 271 784ft 0kts
15-Apr-18 21:11 34.197154 -118.349714 271 784ft 0kts
15-Apr-18 21:12 34.197190 -118.352077 271 784ft 14kts
15-Apr-18 21:13 34.197218 -118.354707 271 784ft 0kts
15-Apr-18 21:14 34.197638 -118.355225 6 784ft 12kts
15-Apr-18 21:15 34.204465 -118.356945 347 784ft 29kts
15-Apr-18 21:16 34.211569 -118.359050 320 784ft 0kts
15-Apr-18 21:17 34.211570 -118.359051 320 784ft 0kts
15-Apr-18 21:18 34.210076 -118.359872 170 784ft 43kts
15-Apr-18 21:19 34.171133 -118.350316 177 2021ft 190kts
15-Apr-18 21:20 34.124948 -118.390573 242 4002ft 231kts
15-Apr-18 21:21 34.147223 -118.451038 344 6421ft 244kts
15-Apr-18 21:22 34.219811 -118.456940 359 9462ft 277kts
15-Apr-18 21:23 34.301787 -118.458713 359 12202ft 314kts
15-Apr-18 21:24 34.381306 -118.429592 61 15190ft 332kts
15-Apr-18 21:25 34.416829 -118.323921 68 18041ft 348kts
15-Apr-18 21:26 34.452593 -118.212586 68 20656ft 363kts
15-Apr-18 21:27 34.490354 -118.098017 65 23019ft 376kts
15-Apr-18 21:28 34.533811 -117.980437 65 25022ft 390kts
15-Apr-18 21:29 34.579793 -117.855833 65 25018ft 428kts
15-Apr-18 21:30 34.628419 -117.723482 65 25016ft 430kts
15-Apr-18 21:31 34.676881 -117.591031 65 25014ft 430kts
15-Apr-18 21:32 34.725345 -117.458028 65 25014ft 430kts
15-Apr-18 21:33 34.773428 -117.325520 65 25015ft 430kts
15-Apr-18 21:34 34.821488 -117.192513 65 25012ft 430kts
15-Apr-18 21:35 34.869068 -117.060284 65 24763ft 432kts
15-Apr-18 21:36 34.916393 -116.928205 65 24014ft 419kts
15-Apr-18 21:37 34.963074 -116.797400 65 24015ft 424kts
15-Apr-18 21:38 35.013566 -116.667863 50 24012ft 422kts
15-Apr-18 21:39 35.088284 -116.557198 49 24014ft 423kts
15-Apr-18 21:40 35.162950 -116.446890 49 24014ft 423kts
15-Apr-18 21:41 35.235976 -116.338660 50 22121ft 407kts
15-Apr-18 21:42 35.305589 -116.235163 50 20173ft 394kts
15-Apr-18 21:43 35.374216 -116.132832 50 18374ft 384kts
15-Apr-18 21:44 35.440921 -116.033082 50 16934ft 375kts
15-Apr-18 21:45 35.506229 -115.935147 50 15534ft 368kts
15-Apr-18 21:46 35.568063 -115.842150 50 14102ft 337kts
15-Apr-18 21:47 35.625667 -115.755301 50 13110ft 307kts
15-Apr-18 21:48 35.678035 -115.676238 49 13124ft 296kts
15-Apr-18 21:49 35.734881 -115.602747 45 13122ft 296kts
15-Apr-18 21:50 35.808671 -115.569692 1 13124ft 294kts
15-Apr-18 21:51 35.890700 -115.566200 1 12799ft 301kts
15-Apr-18 21:52 35.968258 -115.543077 45 11785ft 286kts
15-Apr-18 21:53 36.002596 -115.458912 66 11123ft 267kts
15-Apr-18 21:54 36.028980 -115.372006 83 10425ft 273kts
15-Apr-18 21:55 36.024281 -115.280821 94 9436ft 262kts
15-Apr-18 21:56 36.017962 -115.194174 93 8442ft 248kts
15-Apr-18 21:57 36.012540 -115.114991 93 7687ft 222kts
15-Apr-18 21:58 36.007763 -115.041293 92 6792ft 209kts
15-Apr-18 21:59 36.003946 -114.970645 82 5809ft 204kts
15-Apr-18 22:00 36.045992 -114.959795 331 4949ft 184kts
15-Apr-18 22:01 36.074468 -115.004644 269 4096ft 174kts
15-Apr-18 22:02 36.073651 -115.058621 272 3287ft 149kts
15-Apr-18 22:03 36.073662 -115.109387 272 2497ft 147kts
15-Apr-18 22:04 36.074513 -115.145453 298 2189ft 31kts
15-Apr-18 22:05 36.074922 -115.146300 315 2189ft 6kts
15-Apr-18 22:06 36.079659 -115.147503 33 2189ft 7kts
15-Apr-18 22:07 36.079923 -115.147115 56 2189ft 0kts
15-Apr-18 22:08 36.079923 -115.147116 56 2189ft 0kts

Navigation Log

Ident Type
Flight plan parsing failed, navigation log unavailable